This is the latest recevied weather packets stored in our database for station/object NI4CE-10. If no packets are shown the sender has not sent any weather packets the latest 1 day(s).
| Time | Temp. | Humidity | Pressure | Rain* | Wind** | Luminosity | Snow |
|---|---|---|---|---|---|---|---|
| 1778000147 | 28.33° C | 100% | 1018.1 hPa | 0 mm | 1.79 m/s, 59° | - | - |
| 1777999847 | 28.33° C | 100% | 1018.2 hPa | 0 mm | 1.79 m/s, 90° | - | - |
| 1777999633 | 28.33° C | 100% | 1018.2 hPa | 0 mm | 0.89 m/s, 111° | - | - |
| 1777999547 | 28.33° C | 100% | 1018.2 hPa | 0 mm | 0.89 m/s, 111° | - | - |
| 1777999328 | 29.44° C | 100% | 1018.3 hPa | 0 mm | 0.45 m/s, 123° | - | - |
| 1777999247 | 29.44° C | 100% | 1018.3 hPa | 0 mm | 0.45 m/s, 123° | - | - |
| 1777999090 | 28.33° C | 100% | 1018.3 hPa | 0 mm | 3.13 m/s, 142° | - | - |
| 1777998947 | 28.33° C | 100% | 1018.3 hPa | 0 mm | 3.13 m/s, 142° | - | - |
| 1777998812 | 29.44° C | 100% | 1018.3 hPa | 0 mm | 0.89 m/s, 187° | - | - |
| 1777998647 | 29.44° C | 100% | 1018.3 hPa | 0 mm | 0.89 m/s, 187° | - | - |
| 1777998417 | 28.89° C | 100% | 1018.3 hPa | 0 mm | 4.47 m/s, 81° | - | - |
| 1777998347 | 28.89° C | 100% | 1018.3 hPa | 0 mm | 4.47 m/s, 81° | - | - |
| 1777998047 | 30° C | 100% | 1018.2 hPa | 0 mm | 1.79 m/s, 80° | - | - |
| 1777997831 | 29.44° C | 100% | 1018.2 hPa | 0 mm | 3.13 m/s, 80° | - | - |
| 1777997747 | 29.44° C | 100% | 1018.2 hPa | 0 mm | 3.13 m/s, 80° | - | - |
| 1777997447 | 28.33° C | 100% | 1018.3 hPa | 0 mm | 1.79 m/s, 153° | - | - |
| 1777997217 | 27.78° C | 100% | 1018.4 hPa | 0 mm | 0 m/s | - | - |
| 1777997147 | 27.78° C | 100% | 1018.4 hPa | 0 mm | 0 m/s | - | - |
| 1777996977 | 28.33° C | 100% | 1018.4 hPa | 0 mm | 3.13 m/s, 87° | - | - |
| 1777996847 | 28.33° C | 100% | 1018.4 hPa | 0 mm | 3.13 m/s, 87° | - | - |
| 1777996669 | 28.33° C | 100% | 1018.6 hPa | 0 mm | 3.13 m/s, 149° | - | - |
| 1777996547 | 28.33° C | 100% | 1018.6 hPa | 0 mm | 3.13 m/s, 149° | - | - |
| 1777996298 | 27.78° C | 100% | 1018.6 hPa | 0 mm | 2.24 m/s, 90° | - | - |
| 1777996247 | 27.78° C | 100% | 1018.6 hPa | 0 mm | 2.24 m/s, 90° | - | - |
| 1777996011 | 27.78° C | 100% | 1018.6 hPa | 0 mm | 3.13 m/s, 150° | - | - |
* Rain latest hour (hover to see other rain measurements)
** Current wind speed in m/s (hover to see current wind gust speed)